Upper Brookville, New York
Current Conditions -  °F | °C
As of 12:53 PM on Sunday 23 Nov 2014 (Local Time) from KFRG Reporting Station
Clear Clear  
Wind Chill: 12°   Ceiling: Unl
Heat Index: 12°   Visibility: 10mi
Dew Point: -2°   Wind: 8mph
Humidity: 37%   Direction: 210°SSW
Pressure: 30.15"   Gusts: NA
Location:  40.8471°N, 73.5334°W
Report Text: KFRG 231753Z 21007KT 10SM CLR 12/M02 A3015 RMK AO2 SLP210 T01221022 10128 20067 56024
Loading
Personal Weather Stations






























Interactive Weather Map New forecast layout! Learn more

10-Day Weather Forecast

Advertisements
Track Severe Weather on mobile